sensor_id;sensor_type;location;lat;lon;timestamp;pressure;altitude;pressure_sealevel;temperature
12918;BMP180;6526;54.312;13.092;2022-08-03T00:00:14;101980.00;;;24.30
12918;BMP180;6526;54.312;13.092;2022-08-03T00:02:41;101992.00;;;24.30
12918;BMP180;6526;54.312;13.092;2022-08-03T00:05:07;101990.00;;;24.20
12918;BMP180;6526;54.312;13.092;2022-08-03T00:07:33;101992.00;;;24.30
12918;BMP180;6526;54.312;13.092;2022-08-03T00:09:59;101989.00;;;24.40
12918;BMP180;6526;54.312;13.092;2022-08-03T00:12:25;101989.00;;;24.30
12918;BMP180;6526;54.312;13.092;2022-08-03T00:14:51;101988.00;;;24.20
12918;BMP180;6526;54.312;13.092;2022-08-03T00:17:17;101996.00;;;24.40
12918;BMP180;6526;54.312;13.092;2022-08-03T00:19:43;101985.00;;;24.40
12918;BMP180;6526;54.312;13.092;2022-08-03T00:22:09;101978.00;;;24.50
12918;BMP180;6526;54.312;13.092;2022-08-03T00:24:36;101989.00;;;24.50
12918;BMP180;6526;54.312;13.092;2022-08-03T00:27:02;101988.00;;;24.50
12918;BMP180;6526;54.312;13.092;2022-08-03T00:29:28;101985.00;;;24.40
12918;BMP180;6526;54.312;13.092;2022-08-03T00:31:54;101979.00;;;24.20
12918;BMP180;6526;54.312;13.092;2022-08-03T00:34:20;101984.00;;;24.40
12918;BMP180;6526;54.312;13.092;2022-08-03T00:36:46;101981.00;;;24.40
12918;BMP180;6526;54.312;13.092;2022-08-03T00:39:12;101987.00;;;24.30
12918;BMP180;6526;54.312;13.092;2022-08-03T00:41:38;101979.00;;;24.40
12918;BMP180;6526;54.312;13.092;2022-08-03T00:44:04;101984.00;;;24.40
12918;BMP180;6526;54.312;13.092;2022-08-03T00:46:30;101975.00;;;24.20
12918;BMP180;6526;54.312;13.092;2022-08-03T00:48:56;101974.00;;;24.10
12918;BMP180;6526;54.312;13.092;2022-08-03T00:51:22;101978.00;;;24.10
12918;BMP180;6526;54.312;13.092;2022-08-03T00:53:49;101975.00;;;24.30
12918;BMP180;6526;54.312;13.092;2022-08-03T00:56:16;101976.00;;;24.40
12918;BMP180;6526;54.312;13.092;2022-08-03T00:58:46;101979.00;;;24.50
12918;BMP180;6526;54.312;13.092;2022-08-03T01:01:13;101983.00;;;24.50
12918;BMP180;6526;54.312;13.092;2022-08-03T01:03:39;101976.00;;;24.50
12918;BMP180;6526;54.312;13.092;2022-08-03T01:06:16;101974.00;;;24.40
12918;BMP180;6526;54.312;13.092;2022-08-03T01:08:45;101980.00;;;24.50
12918;BMP180;6526;54.312;13.092;2022-08-03T01:11:32;101966.00;;;24.50
12918;BMP180;6526;54.312;13.092;2022-08-03T01:14:08;101962.00;;;24.30
12918;BMP180;6526;54.312;13.092;2022-08-03T01:16:56;101968.00;;;24.20
12918;BMP180;6526;54.312;13.092;2022-08-03T01:19:44;101961.00;;;24.40
12918;BMP180;6526;54.312;13.092;2022-08-03T01:25:45;101957.00;;;24.50
12918;BMP180;6526;54.312;13.092;2022-08-03T01:28:56;101956.00;;;24.50
12918;BMP180;6526;54.312;13.092;2022-08-03T01:31:38;101951.00;;;24.60
12918;BMP180;6526;54.312;13.092;2022-08-03T01:34:09;101942.00;;;24.60
12918;BMP180;6526;54.312;13.092;2022-08-03T01:36:42;101950.00;;;24.60
12918;BMP180;6526;54.312;13.092;2022-08-03T01:39:08;101952.00;;;24.60
12918;BMP180;6526;54.312;13.092;2022-08-03T01:41:41;101962.00;;;24.60
12918;BMP180;6526;54.312;13.092;2022-08-03T01:44:10;101946.00;;;24.60
12918;BMP180;6526;54.312;13.092;2022-08-03T01:46:38;101946.00;;;24.70
12918;BMP180;6526;54.312;13.092;2022-08-03T01:49:07;101947.00;;;24.60
12918;BMP180;6526;54.312;13.092;2022-08-03T01:51:38;101940.00;;;24.50
12918;BMP180;6526;54.312;13.092;2022-08-03T01:54:08;101940.00;;;24.60
12918;BMP180;6526;54.312;13.092;2022-08-03T01:56:36;101939.00;;;24.70
12918;BMP180;6526;54.312;13.092;2022-08-03T01:59:03;101947.00;;;24.70
12918;BMP180;6526;54.312;13.092;2022-08-03T02:01:32;101939.00;;;24.70
12918;BMP180;6526;54.312;13.092;2022-08-03T02:03:59;101939.00;;;24.60
12918;BMP180;6526;54.312;13.092;2022-08-03T02:06:28;101933.00;;;24.50
12918;BMP180;6526;54.312;13.092;2022-08-03T02:08:56;101931.00;;;24.40
12918;BMP180;6526;54.312;13.092;2022-08-03T02:11:24;101927.00;;;24.40
12918;BMP180;6526;54.312;13.092;2022-08-03T02:13:50;101927.00;;;24.40
12918;BMP180;6526;54.312;13.092;2022-08-03T02:16:18;101927.00;;;24.40
12918;BMP180;6526;54.312;13.092;2022-08-03T02:18:47;101933.00;;;24.20
12918;BMP180;6526;54.312;13.092;2022-08-03T02:21:14;101926.00;;;24.30
12918;BMP180;6526;54.312;13.092;2022-08-03T02:23:40;101933.00;;;24.40
12918;BMP180;6526;54.312;13.092;2022-08-03T02:26:11;101925.00;;;24.40
12918;BMP180;6526;54.312;13.092;2022-08-03T02:28:44;101935.00;;;24.30
12918;BMP180;6526;54.312;13.092;2022-08-03T02:31:17;101919.00;;;24.20
12918;BMP180;6526;54.312;13.092;2022-08-03T02:33:49;101919.00;;;24.30
12918;BMP180;6526;54.312;13.092;2022-08-03T02:36:19;101923.00;;;24.30
12918;BMP180;6526;54.312;13.092;2022-08-03T02:38:50;101919.00;;;24.00
12918;BMP180;6526;54.312;13.092;2022-08-03T02:41:22;101924.00;;;24.10
12918;BMP180;6526;54.312;13.092;2022-08-03T02:43:50;101928.00;;;24.00
12918;BMP180;6526;54.312;13.092;2022-08-03T02:46:21;101929.00;;;24.10
12918;BMP180;6526;54.312;13.092;2022-08-03T02:48:51;101929.00;;;24.10
12918;BMP180;6526;54.312;13.092;2022-08-03T02:51:18;101925.00;;;24.10
12918;BMP180;6526;54.312;13.092;2022-08-03T02:53:47;101921.00;;;24.00
12918;BMP180;6526;54.312;13.092;2022-08-03T02:56:14;101921.00;;;24.00
12918;BMP180;6526;54.312;13.092;2022-08-03T02:58:43;101908.00;;;24.00
12918;BMP180;6526;54.312;13.092;2022-08-03T03:01:11;101918.00;;;24.10
12918;BMP180;6526;54.312;13.092;2022-08-03T03:03:39;101918.00;;;24.10
12918;BMP180;6526;54.312;13.092;2022-08-03T03:06:06;101919.00;;;24.10
12918;BMP180;6526;54.312;13.092;2022-08-03T03:08:34;101919.00;;;24.00
12918;BMP180;6526;54.312;13.092;2022-08-03T03:11:01;101918.00;;;23.90
12918;BMP180;6526;54.312;13.092;2022-08-03T03:13:30;101911.00;;;23.90
12918;BMP180;6526;54.312;13.092;2022-08-03T03:15:59;101914.00;;;24.00
12918;BMP180;6526;54.312;13.092;2022-08-03T03:18:30;101910.00;;;24.00
12918;BMP180;6526;54.312;13.092;2022-08-03T03:20:58;101917.00;;;24.00
12918;BMP180;6526;54.312;13.092;2022-08-03T03:23:26;101914.00;;;24.10
12918;BMP180;6526;54.312;13.092;2022-08-03T03:25:54;101914.00;;;24.30
12918;BMP180;6526;54.312;13.092;2022-08-03T03:28:22;101905.00;;;24.10
12918;BMP180;6526;54.312;13.092;2022-08-03T03:30:48;101914.00;;;24.10
12918;BMP180;6526;54.312;13.092;2022-08-03T03:33:14;101897.00;;;24.10
12918;BMP180;6526;54.312;13.092;2022-08-03T03:35:41;101914.00;;;24.00
12918;BMP180;6526;54.312;13.092;2022-08-03T03:38:09;101912.00;;;24.00
12918;BMP180;6526;54.312;13.092;2022-08-03T03:40:36;101919.00;;;24.20
12918;BMP180;6526;54.312;13.092;2022-08-03T03:43:06;101918.00;;;24.30
12918;BMP180;6526;54.312;13.092;2022-08-03T03:45:34;101926.00;;;24.30
12918;BMP180;6526;54.312;13.092;2022-08-03T03:48:02;101920.00;;;24.30
12918;BMP180;6526;54.312;13.092;2022-08-03T03:50:33;101918.00;;;24.30
12918;BMP180;6526;54.312;13.092;2022-08-03T03:53:00;101918.00;;;24.30
12918;BMP180;6526;54.312;13.092;2022-08-03T03:55:26;101916.00;;;24.30
12918;BMP180;6526;54.312;13.092;2022-08-03T03:57:53;101910.00;;;24.10
12918;BMP180;6526;54.312;13.092;2022-08-03T04:00:20;101914.00;;;24.20
12918;BMP180;6526;54.312;13.092;2022-08-03T04:02:46;101915.00;;;24.30
12918;BMP180;6526;54.312;13.092;2022-08-03T04:05:13;101910.00;;;24.40
12918;BMP180;6526;54.312;13.092;2022-08-03T04:08:00;101911.00;;;24.10
12918;BMP180;6526;54.312;13.092;2022-08-03T04:11:06;101912.00;;;24.20
12918;BMP180;6526;54.312;13.092;2022-08-03T04:13:43;101918.00;;;24.20
12918;BMP180;6526;54.312;13.092;2022-08-03T04:16:13;101916.00;;;24.20
12918;BMP180;6526;54.312;13.092;2022-08-03T04:18:41;101917.00;;;24.40
12918;BMP180;6526;54.312;13.092;2022-08-03T04:21:11;101912.00;;;24.50
12918;BMP180;6526;54.312;13.092;2022-08-03T04:23:41;101927.00;;;24.40
12918;BMP180;6526;54.312;13.092;2022-08-03T04:26:11;101918.00;;;24.30
12918;BMP180;6526;54.312;13.092;2022-08-03T04:28:40;101915.00;;;24.10
12918;BMP180;6526;54.312;13.092;2022-08-03T04:31:08;101929.00;;;24.10
12918;BMP180;6526;54.312;13.092;2022-08-03T04:33:37;101926.00;;;24.00
12918;BMP180;6526;54.312;13.092;2022-08-03T04:36:05;101921.00;;;24.10
12918;BMP180;6526;54.312;13.092;2022-08-03T04:38:39;101923.00;;;24.10
12918;BMP180;6526;54.312;13.092;2022-08-03T04:41:08;101925.00;;;24.20
12918;BMP180;6526;54.312;13.092;2022-08-03T04:43:35;101933.00;;;24.20
12918;BMP180;6526;54.312;13.092;2022-08-03T04:46:06;101925.00;;;24.30
12918;BMP180;6526;54.312;13.092;2022-08-03T04:48:33;101922.00;;;24.40
12918;BMP180;6526;54.312;13.092;2022-08-03T04:51:00;101924.00;;;24.30
12918;BMP180;6526;54.312;13.092;2022-08-03T04:53:29;101928.00;;;24.30
12918;BMP180;6526;54.312;13.092;2022-08-03T04:56:03;101940.00;;;24.30
12918;BMP180;6526;54.312;13.092;2022-08-03T04:58:30;101929.00;;;24.40
12918;BMP180;6526;54.312;13.092;2022-08-03T05:00:56;101935.00;;;24.50
12918;BMP180;6526;54.312;13.092;2022-08-03T05:03:22;101927.00;;;24.60
12918;BMP180;6526;54.312;13.092;2022-08-03T05:05:49;101937.00;;;24.50
12918;BMP180;6526;54.312;13.092;2022-08-03T05:08:15;101935.00;;;24.60
12918;BMP180;6526;54.312;13.092;2022-08-03T05:10:41;101929.00;;;24.70
12918;BMP180;6526;54.312;13.092;2022-08-03T05:13:07;101937.00;;;24.70
12918;BMP180;6526;54.312;13.092;2022-08-03T05:15:37;101899.00;;;24.70
12918;BMP180;6526;54.312;13.092;2022-08-03T05:18:04;101934.00;;;24.80
12918;BMP180;6526;54.312;13.092;2022-08-03T05:20:30;101939.00;;;24.90
12918;BMP180;6526;54.312;13.092;2022-08-03T05:22:56;101938.00;;;24.80
12918;BMP180;6526;54.312;13.092;2022-08-03T05:25:24;101939.00;;;24.90
12918;BMP180;6526;54.312;13.092;2022-08-03T05:27:51;101941.00;;;24.90
12918;BMP180;6526;54.312;13.092;2022-08-03T05:30:17;101940.00;;;25.00
12918;BMP180;6526;54.312;13.092;2022-08-03T05:32:43;101936.00;;;25.10
12918;BMP180;6526;54.312;13.092;2022-08-03T05:35:09;101934.00;;;25.10
12918;BMP180;6526;54.312;13.092;2022-08-03T05:37:35;101926.00;;;25.30
12918;BMP180;6526;54.312;13.092;2022-08-03T05:40:02;101925.00;;;25.40
12918;BMP180;6526;54.312;13.092;2022-08-03T05:42:28;101925.00;;;25.40
12918;BMP180;6526;54.312;13.092;2022-08-03T05:44:54;101924.00;;;25.50
12918;BMP180;6526;54.312;13.092;2022-08-03T05:47:20;101919.00;;;25.80
12918;BMP180;6526;54.312;13.092;2022-08-03T05:49:46;101918.00;;;26.10
12918;BMP180;6526;54.312;13.092;2022-08-03T05:52:13;101924.00;;;26.30
12918;BMP180;6526;54.312;13.092;2022-08-03T05:54:39;101916.00;;;26.30
12918;BMP180;6526;54.312;13.092;2022-08-03T05:57:05;101919.00;;;26.40
12918;BMP180;6526;54.312;13.092;2022-08-03T05:59:31;101916.00;;;26.40
12918;BMP180;6526;54.312;13.092;2022-08-03T06:01:57;101916.00;;;26.50
12918;BMP180;6526;54.312;13.092;2022-08-03T06:04:23;101915.00;;;26.70
12918;BMP180;6526;54.312;13.092;2022-08-03T06:06:49;101917.00;;;26.80
12918;BMP180;6526;54.312;13.092;2022-08-03T06:09:16;101920.00;;;26.90
12918;BMP180;6526;54.312;13.092;2022-08-03T06:11:42;101920.00;;;26.90
12918;BMP180;6526;54.312;13.092;2022-08-03T06:14:08;101917.00;;;27.00
12918;BMP180;6526;54.312;13.092;2022-08-03T06:16:34;101920.00;;;27.10
12918;BMP180;6526;54.312;13.092;2022-08-03T06:19:00;101917.00;;;27.30
12918;BMP180;6526;54.312;13.092;2022-08-03T06:21:26;101913.00;;;27.40
12918;BMP180;6526;54.312;13.092;2022-08-03T06:23:52;101922.00;;;27.70
12918;BMP180;6526;54.312;13.092;2022-08-03T06:26:18;101920.00;;;27.90
12918;BMP180;6526;54.312;13.092;2022-08-03T06:28:45;101928.00;;;28.10
12918;BMP180;6526;54.312;13.092;2022-08-03T06:31:11;101922.00;;;28.20
12918;BMP180;6526;54.312;13.092;2022-08-03T06:33:37;101918.00;;;28.10
12918;BMP180;6526;54.312;13.092;2022-08-03T06:36:03;101919.00;;;28.30
12918;BMP180;6526;54.312;13.092;2022-08-03T06:38:29;101924.00;;;28.60
12918;BMP180;6526;54.312;13.092;2022-08-03T06:40:55;101928.00;;;28.80
12918;BMP180;6526;54.312;13.092;2022-08-03T06:43:21;101940.00;;;29.00
12918;BMP180;6526;54.312;13.092;2022-08-03T06:45:47;101930.00;;;29.10
12918;BMP180;6526;54.312;13.092;2022-08-03T06:48:13;101921.00;;;29.30
12918;BMP180;6526;54.312;13.092;2022-08-03T06:50:41;101931.00;;;29.40
12918;BMP180;6526;54.312;13.092;2022-08-03T06:53:07;101927.00;;;29.40
12918;BMP180;6526;54.312;13.092;2022-08-03T06:55:36;101929.00;;;29.30
12918;BMP180;6526;54.312;13.092;2022-08-03T06:58:02;101930.00;;;29.50
12918;BMP180;6526;54.312;13.092;2022-08-03T07:00:28;101923.00;;;29.60
12918;BMP180;6526;54.312;13.092;2022-08-03T07:02:55;101939.00;;;29.60
12918;BMP180;6526;54.312;13.092;2022-08-03T07:05:21;101927.00;;;29.80
12918;BMP180;6526;54.312;13.092;2022-08-03T07:07:48;101927.00;;;29.90
12918;BMP180;6526;54.312;13.092;2022-08-03T07:10:14;101930.00;;;29.90
12918;BMP180;6526;54.312;13.092;2022-08-03T07:12:40;101923.00;;;30.20
12918;BMP180;6526;54.312;13.092;2022-08-03T07:15:07;101916.00;;;30.30
12918;BMP180;6526;54.312;13.092;2022-08-03T07:17:35;101915.00;;;30.40
12918;BMP180;6526;54.312;13.092;2022-08-03T07:20:03;101926.00;;;30.50
12918;BMP180;6526;54.312;13.092;2022-08-03T07:22:30;101927.00;;;30.70
12918;BMP180;6526;54.312;13.092;2022-08-03T07:24:56;101931.00;;;30.80
12918;BMP180;6526;54.312;13.092;2022-08-03T07:27:22;101916.00;;;31.00
12918;BMP180;6526;54.312;13.092;2022-08-03T07:29:48;101933.00;;;31.10
12918;BMP180;6526;54.312;13.092;2022-08-03T07:32:14;101924.00;;;31.40
12918;BMP180;6526;54.312;13.092;2022-08-03T07:34:40;101913.00;;;31.50
12918;BMP180;6526;54.312;13.092;2022-08-03T07:37:06;101922.00;;;31.40
12918;BMP180;6526;54.312;13.092;2022-08-03T07:39:33;101918.00;;;31.60
12918;BMP180;6526;54.312;13.092;2022-08-03T07:41:59;101907.00;;;31.80
12918;BMP180;6526;54.312;13.092;2022-08-03T07:44:25;101923.00;;;31.90
12918;BMP180;6526;54.312;13.092;2022-08-03T07:46:51;101923.00;;;32.00
12918;BMP180;6526;54.312;13.092;2022-08-03T07:49:17;101917.00;;;32.00
12918;BMP180;6526;54.312;13.092;2022-08-03T07:51:43;101917.00;;;32.10
12918;BMP180;6526;54.312;13.092;2022-08-03T07:54:09;101911.00;;;32.10
12918;BMP180;6526;54.312;13.092;2022-08-03T07:56:35;101918.00;;;32.10
12918;BMP180;6526;54.312;13.092;2022-08-03T07:59:02;101914.00;;;32.20
12918;BMP180;6526;54.312;13.092;2022-08-03T08:01:28;101914.00;;;32.50
12918;BMP180;6526;54.312;13.092;2022-08-03T08:03:54;101925.00;;;32.30
12918;BMP180;6526;54.312;13.092;2022-08-03T08:06:21;101912.00;;;32.60
12918;BMP180;6526;54.312;13.092;2022-08-03T08:08:47;101916.00;;;32.90
12918;BMP180;6526;54.312;13.092;2022-08-03T08:11:13;101916.00;;;33.10
12918;BMP180;6526;54.312;13.092;2022-08-03T08:13:39;101910.00;;;33.10
12918;BMP180;6526;54.312;13.092;2022-08-03T08:16:06;101915.00;;;33.10
12918;BMP180;6526;54.312;13.092;2022-08-03T08:18:32;101901.00;;;33.00
12918;BMP180;6526;54.312;13.092;2022-08-03T08:20:59;101907.00;;;33.10
12918;BMP180;6526;54.312;13.092;2022-08-03T08:23:26;101910.00;;;33.30
12918;BMP180;6526;54.312;13.092;2022-08-03T08:25:52;101907.00;;;33.40
12918;BMP180;6526;54.312;13.092;2022-08-03T08:28:19;101911.00;;;33.60
12918;BMP180;6526;54.312;13.092;2022-08-03T08:30:46;101908.00;;;33.80
12918;BMP180;6526;54.312;13.092;2022-08-03T08:33:12;101914.00;;;33.70
12918;BMP180;6526;54.312;13.092;2022-08-03T08:35:38;101904.00;;;33.80
12918;BMP180;6526;54.312;13.092;2022-08-03T08:38:04;101914.00;;;34.00
12918;BMP180;6526;54.312;13.092;2022-08-03T08:40:30;101888.00;;;34.20
12918;BMP180;6526;54.312;13.092;2022-08-03T08:42:56;101903.00;;;34.20
12918;BMP180;6526;54.312;13.092;2022-08-03T08:45:23;101918.00;;;34.30
12918;BMP180;6526;54.312;13.092;2022-08-03T08:47:51;101909.00;;;34.40
12918;BMP180;6526;54.312;13.092;2022-08-03T08:50:20;101911.00;;;34.40
12918;BMP180;6526;54.312;13.092;2022-08-03T08:52:48;101914.00;;;34.50
12918;BMP180;6526;54.312;13.092;2022-08-03T08:55:20;101912.00;;;34.40
12918;BMP180;6526;54.312;13.092;2022-08-03T08:57:56;101910.00;;;34.30
12918;BMP180;6526;54.312;13.092;2022-08-03T09:00:24;101916.00;;;34.60
12918;BMP180;6526;54.312;13.092;2022-08-03T09:02:50;101915.00;;;34.80
12918;BMP180;6526;54.312;13.092;2022-08-03T09:05:18;101906.00;;;34.80
12918;BMP180;6526;54.312;13.092;2022-08-03T09:07:46;101906.00;;;34.70
12918;BMP180;6526;54.312;13.092;2022-08-03T09:10:15;101903.00;;;34.70
12918;BMP180;6526;54.312;13.092;2022-08-03T09:12:51;101905.00;;;34.90
12918;BMP180;6526;54.312;13.092;2022-08-03T09:15:31;101910.00;;;35.10
12918;BMP180;6526;54.312;13.092;2022-08-03T09:17:59;101912.00;;;35.20
12918;BMP180;6526;54.312;13.092;2022-08-03T09:20:31;101898.00;;;35.20
12918;BMP180;6526;54.312;13.092;2022-08-03T09:23:07;101899.00;;;34.90
12918;BMP180;6526;54.312;13.092;2022-08-03T09:25:37;101902.00;;;34.70
12918;BMP180;6526;54.312;13.092;2022-08-03T09:30:35;101897.00;;;35.10
12918;BMP180;6526;54.312;13.092;2022-08-03T09:33:07;101890.00;;;35.20
12918;BMP180;6526;54.312;13.092;2022-08-03T09:35:39;101901.00;;;35.10
12918;BMP180;6526;54.312;13.092;2022-08-03T09:40:42;101894.00;;;34.80
12918;BMP180;6526;54.312;13.092;2022-08-03T09:43:09;101890.00;;;34.80
12918;BMP180;6526;54.312;13.092;2022-08-03T09:45:37;101892.00;;;35.20
12918;BMP180;6526;54.312;13.092;2022-08-03T09:48:23;101895.00;;;35.40
12918;BMP180;6526;54.312;13.092;2022-08-03T09:50:54;101863.00;;;35.40
12918;BMP180;6526;54.312;13.092;2022-08-03T09:53:21;101890.00;;;35.40
12918;BMP180;6526;54.312;13.092;2022-08-03T09:56:00;101875.00;;;35.50
12918;BMP180;6526;54.312;13.092;2022-08-03T09:58:28;101875.00;;;35.10
12918;BMP180;6526;54.312;13.092;2022-08-03T10:03:21;101865.00;;;35.20
12918;BMP180;6526;54.312;13.092;2022-08-03T10:05:47;101861.00;;;35.60
12918;BMP180;6526;54.312;13.092;2022-08-03T10:08:18;101860.00;;;35.60
12918;BMP180;6526;54.312;13.092;2022-08-03T10:10:45;101878.00;;;35.50
12918;BMP180;6526;54.312;13.092;2022-08-03T10:13:16;101870.00;;;35.50
12918;BMP180;6526;54.312;13.092;2022-08-03T10:15:42;101876.00;;;35.60
12918;BMP180;6526;54.312;13.092;2022-08-03T10:18:08;101870.00;;;35.70
12918;BMP180;6526;54.312;13.092;2022-08-03T10:20:40;101865.00;;;35.60
12918;BMP180;6526;54.312;13.092;2022-08-03T10:23:08;101863.00;;;35.70
12918;BMP180;6526;54.312;13.092;2022-08-03T10:25:36;101865.00;;;35.70
12918;BMP180;6526;54.312;13.092;2022-08-03T10:28:03;101856.00;;;35.80
12918;BMP180;6526;54.312;13.092;2022-08-03T10:30:32;101861.00;;;36.00
12918;BMP180;6526;54.312;13.092;2022-08-03T10:33:04;101855.00;;;36.00
12918;BMP180;6526;54.312;13.092;2022-08-03T10:35:32;101847.00;;;36.00
12918;BMP180;6526;54.312;13.092;2022-08-03T10:38:03;101849.00;;;36.00
12918;BMP180;6526;54.312;13.092;2022-08-03T10:40:34;101843.00;;;36.10
12918;BMP180;6526;54.312;13.092;2022-08-03T10:43:08;101845.00;;;36.20
12918;BMP180;6526;54.312;13.092;2022-08-03T10:45:37;101835.00;;;36.10
12918;BMP180;6526;54.312;13.092;2022-08-03T10:48:05;101846.00;;;36.10
12918;BMP180;6526;54.312;13.092;2022-08-03T10:50:32;101831.00;;;36.10
12918;BMP180;6526;54.312;13.092;2022-08-03T10:53:00;101833.00;;;35.80
12918;BMP180;6526;54.312;13.092;2022-08-03T10:55:39;101840.00;;;35.70
12918;BMP180;6526;54.312;13.092;2022-08-03T10:58:47;101843.00;;;35.40
12918;BMP180;6526;54.312;13.092;2022-08-03T11:01:15;101839.00;;;35.40
12918;BMP180;6526;54.312;13.092;2022-08-03T11:06:28;101840.00;;;35.70
12918;BMP180;6526;54.312;13.092;2022-08-03T11:11:36;101830.00;;;36.00
12918;BMP180;6526;54.312;13.092;2022-08-03T11:14:07;101829.00;;;35.70
12918;BMP180;6526;54.312;13.092;2022-08-03T11:16:38;101820.00;;;35.90
12918;BMP180;6526;54.312;13.092;2022-08-03T11:19:07;101831.00;;;36.00
12918;BMP180;6526;54.312;13.092;2022-08-03T11:27:23;101823.00;;;36.30
12918;BMP180;6526;54.312;13.092;2022-08-03T11:30:09;101821.00;;;36.40
12918;BMP180;6526;54.312;13.092;2022-08-03T11:35:22;101825.00;;;36.30
12918;BMP180;6526;54.312;13.092;2022-08-03T11:46:02;101829.00;;;36.40
12918;BMP180;6526;54.312;13.092;2022-08-03T11:51:17;101824.00;;;36.30
12918;BMP180;6526;54.312;13.092;2022-08-03T11:53:43;101823.00;;;36.30
12918;BMP180;6526;54.312;13.092;2022-08-03T11:56:12;101822.00;;;36.50
12918;BMP180;6526;54.312;13.092;2022-08-03T11:58:49;101818.00;;;36.60
12918;BMP180;6526;54.312;13.092;2022-08-03T12:01:18;101810.00;;;36.80
12918;BMP180;6526;54.312;13.092;2022-08-03T12:03:45;101823.00;;;36.90
12918;BMP180;6526;54.312;13.092;2022-08-03T12:06:12;101827.00;;;36.90
12918;BMP180;6526;54.312;13.092;2022-08-03T12:08:40;101817.00;;;36.70
12918;BMP180;6526;54.312;13.092;2022-08-03T12:11:07;101823.00;;;36.40
12918;BMP180;6526;54.312;13.092;2022-08-03T12:13:48;101805.00;;;36.60
12918;BMP180;6526;54.312;13.092;2022-08-03T12:16:20;101817.00;;;36.80
12918;BMP180;6526;54.312;13.092;2022-08-03T12:19:04;101814.00;;;36.80
12918;BMP180;6526;54.312;13.092;2022-08-03T12:21:32;101823.00;;;36.70
12918;BMP180;6526;54.312;13.092;2022-08-03T12:24:03;101819.00;;;36.70
12918;BMP180;6526;54.312;13.092;2022-08-03T12:26:41;101818.00;;;36.50
12918;BMP180;6526;54.312;13.092;2022-08-03T12:29:07;101813.00;;;36.50
12918;BMP180;6526;54.312;13.092;2022-08-03T12:31:35;101819.00;;;36.60
12918;BMP180;6526;54.312;13.092;2022-08-03T12:34:03;101800.00;;;36.80
12918;BMP180;6526;54.312;13.092;2022-08-03T12:36:33;101807.00;;;36.90
12918;BMP180;6526;54.312;13.092;2022-08-03T12:39:05;101801.00;;;37.00
12918;BMP180;6526;54.312;13.092;2022-08-03T12:41:37;101809.00;;;37.00
12918;BMP180;6526;54.312;13.092;2022-08-03T12:44:05;101807.00;;;37.00
12918;BMP180;6526;54.312;13.092;2022-08-03T12:46:37;101818.00;;;37.20
12918;BMP180;6526;54.312;13.092;2022-08-03T12:49:11;101813.00;;;37.30
12918;BMP180;6526;54.312;13.092;2022-08-03T12:54:19;101804.00;;;37.60
12918;BMP180;6526;54.312;13.092;2022-08-03T12:59:32;101808.00;;;37.20
12918;BMP180;6526;54.312;13.092;2022-08-03T13:01:59;101808.00;;;36.80
12918;BMP180;6526;54.312;13.092;2022-08-03T13:04:27;101801.00;;;36.70
12918;BMP180;6526;54.312;13.092;2022-08-03T13:06:58;101795.00;;;36.80
12918;BMP180;6526;54.312;13.092;2022-08-03T13:09:24;101793.00;;;36.90
12918;BMP180;6526;54.312;13.092;2022-08-03T13:12:24;101811.00;;;36.90
12918;BMP180;6526;54.312;13.092;2022-08-03T13:14:54;101804.00;;;36.90
12918;BMP180;6526;54.312;13.092;2022-08-03T13:17:21;101792.00;;;37.00
12918;BMP180;6526;54.312;13.092;2022-08-03T13:19:47;101800.00;;;37.30
12918;BMP180;6526;54.312;13.092;2022-08-03T13:22:16;101805.00;;;37.20
12918;BMP180;6526;54.312;13.092;2022-08-03T13:24:43;101794.00;;;37.10
12918;BMP180;6526;54.312;13.092;2022-08-03T13:27:10;101799.00;;;37.00
12918;BMP180;6526;54.312;13.092;2022-08-03T13:29:36;101799.00;;;37.00
12918;BMP180;6526;54.312;13.092;2022-08-03T13:32:04;101802.00;;;37.00
12918;BMP180;6526;54.312;13.092;2022-08-03T13:34:30;101798.00;;;37.00
12918;BMP180;6526;54.312;13.092;2022-08-03T13:36:56;101799.00;;;37.10
12918;BMP180;6526;54.312;13.092;2022-08-03T13:39:22;101800.00;;;36.90
12918;BMP180;6526;54.312;13.092;2022-08-03T13:41:48;101808.00;;;36.60
12918;BMP180;6526;54.312;13.092;2022-08-03T13:44:15;101801.00;;;36.60
12918;BMP180;6526;54.312;13.092;2022-08-03T13:46:41;101795.00;;;36.40
12918;BMP180;6526;54.312;13.092;2022-08-03T13:49:07;101799.00;;;36.50
12918;BMP180;6526;54.312;13.092;2022-08-03T13:51:33;101795.00;;;36.80
12918;BMP180;6526;54.312;13.092;2022-08-03T13:54:00;101796.00;;;37.00
12918;BMP180;6526;54.312;13.092;2022-08-03T13:56:26;101793.00;;;37.10
12918;BMP180;6526;54.312;13.092;2022-08-03T13:58:53;101807.00;;;37.00
12918;BMP180;6526;54.312;13.092;2022-08-03T14:01:20;101802.00;;;36.80
12918;BMP180;6526;54.312;13.092;2022-08-03T14:03:46;101798.00;;;36.20
12918;BMP180;6526;54.312;13.092;2022-08-03T14:06:15;101793.00;;;35.80
12918;BMP180;6526;54.312;13.092;2022-08-03T14:08:41;101810.00;;;35.40
12918;BMP180;6526;54.312;13.092;2022-08-03T14:11:07;101823.00;;;35.20
12918;BMP180;6526;54.312;13.092;2022-08-03T14:13:33;101811.00;;;35.10
12918;BMP180;6526;54.312;13.092;2022-08-03T14:15:59;101804.00;;;35.00
12918;BMP180;6526;54.312;13.092;2022-08-03T14:18:25;101802.00;;;34.80
12918;BMP180;6526;54.312;13.092;2022-08-03T14:20:51;101796.00;;;34.40
12918;BMP180;6526;54.312;13.092;2022-08-03T14:23:18;101801.00;;;34.10
12918;BMP180;6526;54.312;13.092;2022-08-03T14:25:44;101802.00;;;34.00
12918;BMP180;6526;54.312;13.092;2022-08-03T14:28:10;101799.00;;;34.10
12918;BMP180;6526;54.312;13.092;2022-08-03T14:30:36;101795.00;;;34.00
12918;BMP180;6526;54.312;13.092;2022-08-03T14:33:03;101800.00;;;34.00
12918;BMP180;6526;54.312;13.092;2022-08-03T14:35:29;101798.00;;;34.00
12918;BMP180;6526;54.312;13.092;2022-08-03T14:37:55;101802.00;;;33.80
12918;BMP180;6526;54.312;13.092;2022-08-03T14:40:21;101812.00;;;33.60
12918;BMP180;6526;54.312;13.092;2022-08-03T14:42:47;101805.00;;;33.50
12918;BMP180;6526;54.312;13.092;2022-08-03T14:45:13;101801.00;;;33.50